Time;durP1;ratioP1;P1;durP2;ratioP2;P2;SDS_P1;SDS_P2;PMS_P1;PMS_P2;Temp;Humidity;BMP_temperature;BMP_pressure;BME280_temperature;BME280_humidity;BME280_pressure;Samples;Min_cycle;Max_cycle;Signal;HPM_P1;HPM_P2
2021/12/09 00:01:32;;;;;;;;;;;2.30;99.90;;;;;;5015784;28;20294;-78
2021/12/09 00:04:01;;;;;;;;;;;2.20;99.90;;;;;;5030542;28;19983;-78
2021/12/09 00:06:30;;;;;;;;;;;2.30;99.90;;;;;;5029111;28;19925;-78
2021/12/09 00:08:58;;;;;;;;;;;2.30;99.90;;;;;;5029855;28;19929;-78
2021/12/09 00:11:25;;;;;;;;;;;2.30;99.90;;;;;;5015690;28;19987;-78
2021/12/09 00:13:52;;;;;;;;;;;2.30;99.90;;;;;;5031395;28;19925;-78
2021/12/09 00:16:19;;;;;;;;;;;2.20;99.90;;;;;;5032571;28;19925;-78
2021/12/09 00:18:47;;;;;;;;;;;2.30;99.90;;;;;;5034264;28;19933;-78
2021/12/09 00:21:15;;;;;;;;;;;2.30;99.90;;;;;;5028445;28;19925;-78
2021/12/09 00:23:42;;;;;;;;;;;2.30;99.90;;;;;;5037715;28;19948;-78
2021/12/09 00:26:08;;;;;;;;;;;2.30;99.90;;;;;;5011348;28;20445;-78
2021/12/09 00:28:35;;;;;;;;;;;2.30;99.90;;;;;;5017095;28;19932;-78
2021/12/09 00:31:02;;;;;;;;;;;2.30;99.90;;;;;;5027442;28;20305;-78
2021/12/09 00:33:29;;;;;;;;;;;2.30;99.90;;;;;;5033063;28;19933;-78
2021/12/09 00:35:59;;;;;;;;;;;2.30;99.90;;;;;;5031225;28;19979;-78
2021/12/09 00:38:36;;;;;;;;;;;2.30;99.90;;;;;;5027588;28;19980;-78
2021/12/09 00:41:04;;;;;;;;;;;2.30;99.90;;;;;;5034018;28;20445;-78
2021/12/09 00:43:31;;;;;;;;;;;2.30;99.90;;;;;;5033443;28;20379;-78
2021/12/09 00:45:58;;;;;;;;;;;2.30;99.90;;;;;;5031126;28;19925;-78
2021/12/09 00:48:25;;;;;;;;;;;2.30;99.90;;;;;;5015808;28;19932;-78
2021/12/09 00:50:52;;;;;;;;;;;2.30;99.90;;;;;;5015369;28;19933;-78
2021/12/09 00:53:21;;;;;;;;;;;2.30;99.90;;;;;;5028684;28;19952;-78
2021/12/09 00:55:48;;;;;;;;;;;2.30;99.90;;;;;;5015274;28;19949;-78
2021/12/09 00:58:15;;;;;;;;;;;2.30;99.90;;;;;;5030803;28;20545;-78
2021/12/09 01:00:42;;;;;;;;;;;2.30;99.90;;;;;;5031143;28;20002;-78
2021/12/09 01:03:09;;;;;;;;;;;2.30;99.90;;;;;;5032227;28;20366;-78
2021/12/09 01:05:36;;;;;;;;;;;2.20;99.90;;;;;;5013912;28;19956;-78
2021/12/09 01:08:03;;;;;;;;;;;2.30;99.90;;;;;;5025260;28;19971;-78
2021/12/09 01:10:31;;;;;;;;;;;2.30;99.90;;;;;;5013107;28;19933;-78
2021/12/09 01:12:58;;;;;;;;;;;2.30;99.90;;;;;;5030291;28;19952;-78
2021/12/09 01:15:27;;;;;;;;;;;2.30;99.90;;;;;;5012819;28;21270;-78
2021/12/09 01:17:54;;;;;;;;;;;2.30;99.90;;;;;;5020542;28;20372;-78
2021/12/09 01:20:25;;;;;;;;;;;2.30;99.90;;;;;;5031409;28;20430;-78
2021/12/09 01:22:53;;;;;;;;;;;2.30;99.90;;;;;;5030662;28;19929;-78
2021/12/09 01:25:21;;;;;;;;;;;2.30;99.90;;;;;;5030686;28;19975;-78
2021/12/09 01:27:51;;;;;;;;;;;2.30;99.90;;;;;;5027592;28;19940;-78
2021/12/09 01:30:19;;;;;;;;;;;2.30;99.90;;;;;;5024247;28;19939;-78
2021/12/09 01:32:50;;;;;;;;;;;2.20;99.90;;;;;;5015726;28;19925;-78
2021/12/09 01:35:18;;;;;;;;;;;2.30;99.90;;;;;;5027431;28;19960;-78
2021/12/09 01:37:46;;;;;;;;;;;2.30;99.90;;;;;;5032157;28;20391;-78
2021/12/09 01:40:13;;;;;;;;;;;2.30;99.90;;;;;;5028322;28;19976;-78
2021/12/09 01:42:40;;;;;;;;;;;2.20;99.90;;;;;;5014290;28;19972;-78
2021/12/09 01:45:09;;;;;;;;;;;2.30;99.90;;;;;;5032644;28;19933;-78
2021/12/09 01:47:36;;;;;;;;;;;2.30;99.90;;;;;;5030045;28;20365;-78
2021/12/09 01:50:03;;;;;;;;;;;2.30;99.90;;;;;;5013882;28;20026;-78
2021/12/09 01:52:30;;;;;;;;;;;2.30;99.90;;;;;;5030879;28;20334;-78
2021/12/09 01:54:57;;;;;;;;;;;2.30;99.90;;;;;;5027271;28;19932;-78
2021/12/09 01:57:24;;;;;;;;;;;2.30;99.90;;;;;;5012684;28;19979;-78
2021/12/09 01:59:51;;;;;;;;;;;2.30;99.90;;;;;;5026318;28;20318;-78
2021/12/09 02:02:20;;;;;;;;;;;2.30;99.90;;;;;;5028622;28;19964;-78
2021/12/09 02:04:47;;;;;;;;;;;2.30;99.90;;;;;;5011801;28;22014;-78
2021/12/09 02:07:14;;;;;;;;;;;2.30;99.90;;;;;;5027144;28;19925;-78
2021/12/09 02:09:41;;;;;;;;;;;2.30;99.90;;;;;;5011653;28;19925;-78
2021/12/09 02:12:10;;;;;;;;;;;2.20;99.90;;;;;;5030538;28;19925;-78
2021/12/09 02:14:40;;;;;;;;;;;2.20;99.90;;;;;;5030265;28;19925;-78
2021/12/09 02:17:07;;;;;;;;;;;2.20;99.90;;;;;;5031977;28;19925;-78
2021/12/09 02:19:36;;;;;;;;;;;2.20;99.90;;;;;;5029805;28;19996;-78
2021/12/09 02:22:04;;;;;;;;;;;2.20;99.90;;;;;;5029531;28;19929;-78
2021/12/09 02:24:31;;;;;;;;;;;2.20;99.90;;;;;;5011061;28;19972;-78
2021/12/09 02:26:59;;;;;;;;;;;2.20;99.90;;;;;;5028465;28;19925;-78
2021/12/09 02:29:25;;;;;;;;;;;2.20;99.90;;;;;;5029278;28;19925;-78
2021/12/09 02:31:56;;;;;;;;;;;2.20;99.90;;;;;;5031241;28;20031;-78
2021/12/09 02:34:23;;;;;;;;;;;2.20;99.90;;;;;;5028996;28;19933;-78
2021/12/09 02:36:51;;;;;;;;;;;2.20;99.90;;;;;;5032171;28;19933;-78
2021/12/09 02:39:20;;;;;;;;;;;2.20;99.90;;;;;;5013832;28;19952;-78
2021/12/09 02:41:47;;;;;;;;;;;2.20;99.90;;;;;;5010233;28;19925;-78
2021/12/09 02:44:17;;;;;;;;;;;2.20;99.90;;;;;;5030088;28;19925;-78
2021/12/09 02:46:44;;;;;;;;;;;2.20;99.90;;;;;;5029729;28;19956;-78
2021/12/09 02:49:12;;;;;;;;;;;2.20;99.90;;;;;;5031227;28;19933;-78
2021/12/09 02:51:40;;;;;;;;;;;2.20;99.90;;;;;;5015572;28;19975;-78
2021/12/09 02:54:08;;;;;;;;;;;2.20;99.90;;;;;;5017679;28;19928;-78
2021/12/09 02:56:37;;;;;;;;;;;2.20;99.90;;;;;;5026964;28;19925;-78
2021/12/09 02:59:04;;;;;;;;;;;2.20;99.90;;;;;;5015106;28;19925;-78
2021/12/09 03:01:33;;;;;;;;;;;2.20;99.90;;;;;;5030832;28;19925;-78
2021/12/09 03:04:02;;;;;;;;;;;2.20;99.90;;;;;;5033370;28;19937;-78
2021/12/09 03:06:30;;;;;;;;;;;2.20;99.90;;;;;;5016609;28;19925;-78
2021/12/09 03:08:57;;;;;;;;;;;2.20;99.90;;;;;;5014880;28;19929;-78
2021/12/09 03:11:24;;;;;;;;;;;2.20;99.90;;;;;;5026696;28;19925;-78
2021/12/09 03:13:52;;;;;;;;;;;2.20;99.90;;;;;;5015920;28;20422;-78
2021/12/09 03:16:22;;;;;;;;;;;2.20;99.90;;;;;;5031616;22;19917;-76
2021/12/09 03:18:50;;;;;;;;;;;2.10;99.90;;;;;;5043608;28;20451;-76
2021/12/09 03:21:17;;;;;;;;;;;2.20;99.90;;;;;;5030783;28;19995;-76
2021/12/09 03:23:44;;;;;;;;;;;2.10;99.90;;;;;;5032967;28;19932;-75
2021/12/09 03:26:12;;;;;;;;;;;2.10;99.90;;;;;;5049310;28;21967;-76
2021/12/09 03:28:38;;;;;;;;;;;2.10;99.90;;;;;;5052112;28;19925;-75
2021/12/09 03:31:07;;;;;;;;;;;2.10;99.90;;;;;;5047981;28;19929;-76
2021/12/09 03:33:33;;;;;;;;;;;2.10;99.90;;;;;;5049067;28;20338;-76
2021/12/09 03:36:02;;;;;;;;;;;2.10;99.90;;;;;;5032594;28;19925;-75
2021/12/09 03:38:29;;;;;;;;;;;2.10;99.90;;;;;;5034393;28;20901;-76
2021/12/09 03:40:56;;;;;;;;;;;2.10;99.90;;;;;;5049597;28;19933;-75
2021/12/09 03:43:23;;;;;;;;;;;2.10;99.90;;;;;;5048326;28;19929;-76
2021/12/09 03:45:53;;;;;;;;;;;2.10;99.90;;;;;;5032958;28;19948;-75
2021/12/09 03:48:21;;;;;;;;;;;2.10;99.90;;;;;;5032045;28;20027;-75
2021/12/09 03:50:50;;;;;;;;;;;2.10;99.90;;;;;;5031975;28;19925;-76
2021/12/09 03:53:17;;;;;;;;;;;2.10;99.90;;;;;;5050750;28;19928;-75
2021/12/09 03:55:44;;;;;;;;;;;2.10;99.90;;;;;;5049684;28;19972;-75
2021/12/09 03:58:11;;;;;;;;;;;2.10;99.90;;;;;;5055891;28;19935;-75
2021/12/09 04:00:38;;;;;;;;;;;2.10;99.90;;;;;;5033103;28;20430;-75
2021/12/09 04:03:07;;;;;;;;;;;2.10;99.90;;;;;;5044768;28;19929;-75
2021/12/09 04:05:35;;;;;;;;;;;2.10;99.90;;;;;;5031245;28;20342;-76
2021/12/09 04:08:03;;;;;;;;;;;2.10;99.90;;;;;;5051980;28;19932;-76
2021/12/09 04:10:30;;;;;;;;;;;2.00;99.90;;;;;;5051125;28;19929;-76
2021/12/09 04:12:57;;;;;;;;;;;2.00;99.90;;;;;;5050173;28;20345;-76
2021/12/09 04:15:24;;;;;;;;;;;2.00;99.90;;;;;;5049715;28;19955;-76
2021/12/09 04:17:50;;;;;;;;;;;2.00;99.90;;;;;;5048243;28;19932;-76
2021/12/09 04:20:17;;;;;;;;;;;2.00;99.90;;;;;;5028752;28;19931;-75
2021/12/09 04:22:48;;;;;;;;;;;2.00;99.90;;;;;;5047995;28;19931;-76
2021/12/09 04:25:16;;;;;;;;;;;2.00;99.90;;;;;;5047929;28;20020;-75
2021/12/09 04:27:43;;;;;;;;;;;2.00;99.90;;;;;;5043840;28;20402;-76
2021/12/09 04:30:10;;;;;;;;;;;2.00;99.90;;;;;;5027876;28;19968;-76
2021/12/09 04:32:37;;;;;;;;;;;2.10;99.90;;;;;;5052188;28;19936;-76
2021/12/09 04:35:04;;;;;;;;;;;2.10;99.90;;;;;;5047395;28;19960;-76
2021/12/09 04:37:31;;;;;;;;;;;2.10;99.90;;;;;;5023109;28;19929;-75
2021/12/09 04:40:00;;;;;;;;;;;2.00;99.90;;;;;;5025080;28;19972;-75
2021/12/09 04:42:27;;;;;;;;;;;2.00;99.90;;;;;;5046315;28;19925;-76
2021/12/09 04:44:54;;;;;;;;;;;2.00;99.90;;;;;;5028546;28;19975;-75
2021/12/09 04:47:21;;;;;;;;;;;2.00;99.90;;;;;;5042345;28;19933;-75
2021/12/09 04:49:48;;;;;;;;;;;2.00;99.90;;;;;;5025568;28;19924;-75
2021/12/09 04:52:15;;;;;;;;;;;2.00;99.90;;;;;;5042770;28;19924;-75
2021/12/09 04:54:42;;;;;;;;;;;2.00;99.90;;;;;;5048916;28;20516;-76
2021/12/09 04:57:13;;;;;;;;;;;2.00;99.90;;;;;;5040212;28;19928;-75
2021/12/09 04:59:40;;;;;;;;;;;2.00;99.90;;;;;;5022998;28;20825;-75
2021/12/09 05:02:10;;;;;;;;;;;2.00;99.90;;;;;;5041719;28;19929;-76
2021/12/09 05:04:37;;;;;;;;;;;2.00;99.90;;;;;;5036249;28;19932;-76
2021/12/09 05:07:04;;;;;;;;;;;2.00;99.90;;;;;;5036842;28;20468;-76
2021/12/09 05:09:37;;;;;;;;;;;2.00;99.90;;;;;;5041962;28;19931;-75
2021/12/09 05:12:05;;;;;;;;;;;2.00;99.90;;;;;;5031454;28;19924;-75
2021/12/09 05:14:33;;;;;;;;;;;2.00;99.90;;;;;;5029009;28;19929;-76
2021/12/09 05:17:01;;;;;;;;;;;2.00;99.90;;;;;;5034940;28;19925;-76
2021/12/09 05:19:28;;;;;;;;;;;2.00;99.90;;;;;;5043986;28;19931;-76
2021/12/09 05:21:54;;;;;;;;;;;2.00;99.90;;;;;;5043926;28;19955;-76
2021/12/09 05:24:21;;;;;;;;;;;2.00;99.90;;;;;;5023591;28;19995;-76
2021/12/09 05:26:52;;;;;;;;;;;2.00;99.90;;;;;;5042178;28;19943;-75
2021/12/09 05:29:21;;;;;;;;;;;1.90;99.90;;;;;;5044452;28;19925;-75
2021/12/09 05:34:36;;;;;;;;;;;2.00;99.90;;;;;;5046188;28;20357;-75
2021/12/09 05:37:04;;;;;;;;;;;2.00;99.90;;;;;;5029063;28;19987;-76
2021/12/09 05:39:31;;;;;;;;;;;2.00;99.90;;;;;;5023131;28;19924;-76
2021/12/09 05:41:59;;;;;;;;;;;2.00;99.90;;;;;;5044722;28;20465;-76
2021/12/09 05:44:26;;;;;;;;;;;2.00;99.90;;;;;;5025835;28;19929;-76
2021/12/09 05:46:54;;;;;;;;;;;2.00;99.90;;;;;;5025901;28;19925;-75
2021/12/09 05:49:21;;;;;;;;;;;2.00;99.90;;;;;;5042623;28;21629;-76
2021/12/09 05:51:48;;;;;;;;;;;2.00;99.90;;;;;;5043231;28;19925;-76
2021/12/09 05:54:15;;;;;;;;;;;2.00;99.90;;;;;;5045618;28;19932;-75
2021/12/09 05:56:42;;;;;;;;;;;2.00;99.90;;;;;;5039202;28;19925;-75
2021/12/09 05:59:09;;;;;;;;;;;1.90;99.90;;;;;;5022017;28;19979;-76
2021/12/09 06:01:36;;;;;;;;;;;1.90;99.90;;;;;;5026501;28;19939;-76
2021/12/09 06:04:05;;;;;;;;;;;1.90;99.90;;;;;;5041551;28;19932;-75
2021/12/09 06:06:32;;;;;;;;;;;1.90;99.90;;;;;;5041964;28;19929;-75
2021/12/09 06:08:59;;;;;;;;;;;1.90;99.90;;;;;;5042671;28;19931;-75
2021/12/09 06:11:26;;;;;;;;;;;2.00;99.90;;;;;;5042796;28;19929;-75
2021/12/09 06:13:55;;;;;;;;;;;1.90;99.90;;;;;;5041301;28;19931;-75
2021/12/09 06:16:24;;;;;;;;;;;1.90;99.90;;;;;;5042646;28;19933;-76
2021/12/09 06:18:51;;;;;;;;;;;1.90;99.90;;;;;;5047093;28;19932;-76
2021/12/09 06:21:20;;;;;;;;;;;2.00;99.90;;;;;;5044819;28;19953;-76
2021/12/09 06:23:46;;;;;;;;;;;2.00;99.90;;;;;;5043544;28;19933;-75
2021/12/09 06:26:13;;;;;;;;;;;2.00;99.90;;;;;;5015943;28;19925;-76
2021/12/09 06:28:40;;;;;;;;;;;2.00;99.90;;;;;;5031160;28;20016;-76
2021/12/09 06:31:07;;;;;;;;;;;2.00;99.90;;;;;;5049725;28;19929;-76
2021/12/09 06:33:35;;;;;;;;;;;2.00;99.90;;;;;;5032911;28;19929;-76
2021/12/09 06:36:02;;;;;;;;;;;1.90;99.90;;;;;;5032834;28;19978;-76
2021/12/09 06:38:30;;;;;;;;;;;1.90;99.90;;;;;;5031743;28;20370;-76
2021/12/09 06:40:57;;;;;;;;;;;1.90;99.90;;;;;;5039569;28;19929;-75
2021/12/09 06:43:24;;;;;;;;;;;1.90;99.90;;;;;;5041450;28;19975;-76
2021/12/09 06:45:53;;;;;;;;;;;1.90;99.90;;;;;;5027648;28;19931;-75
2021/12/09 06:48:20;;;;;;;;;;;1.90;99.90;;;;;;5030897;28;19925;-76
2021/12/09 06:50:47;;;;;;;;;;;1.90;99.90;;;;;;5031910;28;19933;-76
2021/12/09 06:53:14;;;;;;;;;;;1.90;99.90;;;;;;5050286;28;20318;-76
2021/12/09 06:55:43;;;;;;;;;;;2.00;99.90;;;;;;5031845;28;19960;-75
2021/12/09 06:58:10;;;;;;;;;;;1.90;99.90;;;;;;5046075;28;20609;-75
2021/12/09 07:00:41;;;;;;;;;;;1.90;99.90;;;;;;5044845;28;19936;-76
2021/12/09 07:03:09;;;;;;;;;;;1.90;99.90;;;;;;5042494;28;19925;-76
2021/12/09 07:05:36;;;;;;;;;;;1.90;99.90;;;;;;5024165;28;19933;-76
2021/12/09 07:08:04;;;;;;;;;;;1.90;99.90;;;;;;5029996;28;19964;-76
2021/12/09 07:10:31;;;;;;;;;;;1.90;99.90;;;;;;5048347;28;20014;-76
2021/12/09 07:12:59;;;;;;;;;;;1.90;99.90;;;;;;5048526;28;21392;-76
2021/12/09 07:15:26;;;;;;;;;;;1.90;99.90;;;;;;5028147;28;20406;-75
2021/12/09 07:17:53;;;;;;;;;;;1.90;99.90;;;;;;5035666;28;19936;-75
2021/12/09 07:20:22;;;;;;;;;;;1.90;99.90;;;;;;5032551;28;20349;-75
2021/12/09 07:22:50;;;;;;;;;;;1.90;99.90;;;;;;5051477;28;19932;-76
2021/12/09 07:25:17;;;;;;;;;;;1.90;99.90;;;;;;5028538;28;19956;-76
2021/12/09 07:27:44;;;;;;;;;;;2.00;99.90;;;;;;5052189;28;20409;-75
2021/12/09 07:30:13;;;;;;;;;;;2.00;99.90;;;;;;5048189;28;20430;-76
2021/12/09 07:32:40;;;;;;;;;;;2.00;99.90;;;;;;5046006;28;19972;-76
2021/12/09 07:35:07;;;;;;;;;;;2.00;99.90;;;;;;5054694;28;19933;-76
2021/12/09 07:37:36;;;;;;;;;;;2.00;99.90;;;;;;5042481;28;19932;-75
2021/12/09 07:40:04;;;;;;;;;;;1.90;99.90;;;;;;5046050;28;19941;-75
2021/12/09 07:42:31;;;;;;;;;;;2.00;99.90;;;;;;5030955;28;19925;-75
2021/12/09 07:44:58;;;;;;;;;;;1.90;99.90;;;;;;5032974;28;19929;-76
2021/12/09 07:47:26;;;;;;;;;;;1.90;99.90;;;;;;5030407;28;20035;-76
2021/12/09 07:49:53;;;;;;;;;;;1.90;99.90;;;;;;5031311;28;19971;-76
2021/12/09 07:52:20;;;;;;;;;;;2.00;99.90;;;;;;5056338;28;20297;-76
2021/12/09 07:54:47;;;;;;;;;;;2.00;99.90;;;;;;5032817;28;19935;-75
2021/12/09 07:57:13;;;;;;;;;;;1.90;99.90;;;;;;5051026;28;19925;-76
2021/12/09 07:59:40;;;;;;;;;;;1.90;99.90;;;;;;5033693;28;19932;-76
2021/12/09 08:02:07;;;;;;;;;;;1.90;99.90;;;;;;5042784;28;19941;-76
2021/12/09 08:04:36;;;;;;;;;;;2.00;99.90;;;;;;5032561;28;19925;-76
2021/12/09 08:07:03;;;;;;;;;;;2.00;99.90;;;;;;5025834;28;19929;-75
2021/12/09 08:09:30;;;;;;;;;;;2.00;99.90;;;;;;5048885;28;19987;-75
2021/12/09 08:11:56;;;;;;;;;;;2.00;99.90;;;;;;5046460;28;19968;-76
2021/12/09 08:14:23;;;;;;;;;;;2.00;99.90;;;;;;5046997;28;19932;-76
2021/12/09 08:17:07;;;;;;;;;;;2.00;99.90;;;;;;5030224;28;20484;-76
2021/12/09 08:19:36;;;;;;;;;;;2.00;99.90;;;;;;5027933;28;19925;-76
2021/12/09 08:22:03;;;;;;;;;;;2.00;99.90;;;;;;5027358;28;20031;-76
2021/12/09 08:24:29;;;;;;;;;;;1.90;99.90;;;;;;5045680;28;20402;-76
2021/12/09 08:26:56;;;;;;;;;;;1.90;99.90;;;;;;5025196;28;19924;-76
2021/12/09 08:29:23;;;;;;;;;;;2.00;99.90;;;;;;5045626;28;19931;-75
2021/12/09 08:31:50;;;;;;;;;;;2.00;99.90;;;;;;5027531;28;19972;-76
2021/12/09 08:34:17;;;;;;;;;;;2.00;99.90;;;;;;5026331;28;20371;-76
2021/12/09 08:36:46;;;;;;;;;;;2.00;99.90;;;;;;5047964;28;20015;-76
2021/12/09 08:39:13;;;;;;;;;;;2.00;99.90;;;;;;5028493;28;19928;-76
2021/12/09 08:41:40;;;;;;;;;;;2.00;99.90;;;;;;5046582;28;19925;-76
2021/12/09 08:44:08;;;;;;;;;;;2.00;99.90;;;;;;5025060;28;19978;-75
2021/12/09 08:46:35;;;;;;;;;;;2.00;99.90;;;;;;5047512;28;19925;-76
2021/12/09 08:49:02;;;;;;;;;;;2.00;99.90;;;;;;5026137;28;19929;-76
2021/12/09 08:51:29;;;;;;;;;;;2.00;99.90;;;;;;5044979;28;20444;-76
2021/12/09 08:53:58;;;;;;;;;;;2.00;99.90;;;;;;5045948;28;19925;-76
2021/12/09 08:56:26;;;;;;;;;;;2.00;99.90;;;;;;5019697;28;20401;-76
2021/12/09 08:58:53;;;;;;;;;;;2.00;99.90;;;;;;5046593;28;19960;-76
2021/12/09 09:01:20;;;;;;;;;;;2.00;99.90;;;;;;5040891;28;20383;-76
2021/12/09 09:03:47;;;;;;;;;;;2.00;99.90;;;;;;5028556;28;20330;-76
2021/12/09 09:06:14;;;;;;;;;;;2.00;99.90;;;;;;5040557;28;20421;-75
2021/12/09 09:08:41;;;;;;;;;;;2.00;99.90;;;;;;5045906;28;19933;-75
2021/12/09 09:11:09;;;;;;;;;;;2.00;99.90;;;;;;5047418;28;20016;-76
2021/12/09 09:13:36;;;;;;;;;;;2.00;99.90;;;;;;5046230;28;19971;-76
2021/12/09 09:16:04;;;;;;;;;;;2.00;99.90;;;;;;5043715;28;19978;-76
2021/12/09 09:18:31;;;;;;;;;;;2.00;99.90;;;;;;5027668;28;19971;-75
2021/12/09 09:20:58;;;;;;;;;;;2.00;99.90;;;;;;5041082;28;19929;-75
2021/12/09 09:23:25;;;;;;;;;;;2.00;99.90;;;;;;5029232;28;19939;-75
2021/12/09 09:25:52;;;;;;;;;;;2.00;99.90;;;;;;5027266;28;19935;-75
2021/12/09 09:28:23;;;;;;;;;;;2.00;99.90;;;;;;5030399;28;20320;-75
2021/12/09 09:30:56;;;;;;;;;;;2.10;99.90;;;;;;5020746;28;19940;-76
2021/12/09 09:33:24;;;;;;;;;;;2.00;99.90;;;;;;5043260;28;19924;-76
2021/12/09 09:35:51;;;;;;;;;;;2.10;99.90;;;;;;5045648;28;20547;-76
2021/12/09 09:38:19;;;;;;;;;;;2.10;99.90;;;;;;5045660;28;20306;-75
2021/12/09 09:40:50;;;;;;;;;;;2.10;99.90;;;;;;5047030;28;19948;-76
2021/12/09 09:43:30;;;;;;;;;;;2.10;99.90;;;;;;5026076;28;19932;-76
2021/12/09 09:45:59;;;;;;;;;;;2.10;99.90;;;;;;5026949;28;19928;-76
2021/12/09 09:48:26;;;;;;;;;;;2.10;99.90;;;;;;5028465;28;20466;-76
2021/12/09 09:50:53;;;;;;;;;;;2.20;99.90;;;;;;5025732;28;19925;-76
2021/12/09 09:53:20;;;;;;;;;;;2.10;99.90;;;;;;5045232;28;19924;-75
2021/12/09 09:55:47;;;;;;;;;;;2.10;99.90;;;;;;5043742;28;19931;-76
2021/12/09 09:58:15;;;;;;;;;;;2.20;99.90;;;;;;5027744;28;19947;-75
2021/12/09 10:00:41;;;;;;;;;;;2.20;99.90;;;;;;5025101;28;19987;-76
2021/12/09 10:03:16;;;;;;;;;;;2.20;99.90;;;;;;5029536;28;20158;-76
2021/12/09 10:05:44;;;;;;;;;;;2.20;99.90;;;;;;5025279;28;20063;-76
2021/12/09 10:08:12;;;;;;;;;;;2.20;99.90;;;;;;5028344;28;20387;-76
2021/12/09 10:10:40;;;;;;;;;;;2.20;99.90;;;;;;5026342;28;19964;-76
2021/12/09 10:13:07;;;;;;;;;;;2.20;99.90;;;;;;5041300;28;19929;-75
2021/12/09 10:15:35;;;;;;;;;;;2.30;99.90;;;;;;5050054;28;19964;-76
2021/12/09 10:18:02;;;;;;;;;;;2.20;99.90;;;;;;5027693;28;20575;-76
2021/12/09 10:20:43;;;;;;;;;;;2.20;99.90;;;;;;5044141;28;20418;-76
2021/12/09 10:23:22;;;;;;;;;;;2.30;99.90;;;;;;5047496;28;19935;-76
2021/12/09 10:26:09;;;;;;;;;;;2.30;99.90;;;;;;5025020;28;19935;-76
2021/12/09 10:28:36;;;;;;;;;;;2.30;99.90;;;;;;5023694;28;19925;-76
2021/12/09 10:31:11;;;;;;;;;;;2.30;99.90;;;;;;5045314;28;19932;-76
2021/12/09 10:33:58;;;;;;;;;;;2.30;99.90;;;;;;5025531;28;19932;-76
2021/12/09 10:36:44;;;;;;;;;;;2.30;99.90;;;;;;5043582;28;19933;-76
2021/12/09 10:39:15;;;;;;;;;;;2.30;99.90;;;;;;5026289;28;19929;-76
2021/12/09 10:41:42;;;;;;;;;;;2.30;99.90;;;;;;5053359;28;19925;-75
2021/12/09 10:44:09;;;;;;;;;;;2.40;99.90;;;;;;5042530;28;19960;-76
2021/12/09 10:46:47;;;;;;;;;;;2.40;99.90;;;;;;5023828;28;19925;-76
2021/12/09 10:49:15;;;;;;;;;;;2.40;99.90;;;;;;5042334;28;19975;-76
2021/12/09 10:51:55;;;;;;;;;;;2.40;99.90;;;;;;5026266;28;19940;-76
2021/12/09 10:54:30;;;;;;;;;;;2.40;99.90;;;;;;5028232;28;19959;-76
2021/12/09 10:56:57;;;;;;;;;;;2.40;99.90;;;;;;5027698;28;19962;-76
2021/12/09 10:59:29;;;;;;;;;;;2.40;99.90;;;;;;5027648;28;19929;-75
2021/12/09 11:02:06;;;;;;;;;;;2.40;99.90;;;;;;5025125;28;19924;-76
2021/12/09 11:04:32;;;;;;;;;;;2.50;99.90;;;;;;5051449;28;19932;-76
2021/12/09 11:07:18;;;;;;;;;;;2.50;99.90;;;;;;5025829;28;19928;-76
2021/12/09 11:09:45;;;;;;;;;;;2.50;99.90;;;;;;5042473;28;19929;-76
2021/12/09 11:12:26;;;;;;;;;;;2.50;99.90;;;;;;5047667;28;19960;-76
2021/12/09 11:15:00;;;;;;;;;;;2.50;99.90;;;;;;5030537;28;19931;-76
2021/12/09 11:17:33;;;;;;;;;;;2.50;99.90;;;;;;5042298;28;20016;-76
2021/12/09 11:20:03;;;;;;;;;;;2.60;99.90;;;;;;5034716;28;20028;-76
2021/12/09 11:22:33;;;;;;;;;;;2.60;99.90;;;;;;5034152;28;20387;-76
2021/12/09 11:25:03;;;;;;;;;;;2.60;99.90;;;;;;5029051;28;20773;-76
2021/12/09 11:27:31;;;;;;;;;;;2.60;99.90;;;;;;5033864;28;19959;-76
2021/12/09 11:30:08;;;;;;;;;;;2.60;99.90;;;;;;5046659;28;19929;-76
2021/12/09 11:32:41;;;;;;;;;;;2.70;99.90;;;;;;5028576;28;19932;-76
2021/12/09 11:35:13;;;;;;;;;;;2.70;99.90;;;;;;5046053;28;19932;-76
2021/12/09 11:37:47;;;;;;;;;;;2.70;99.90;;;;;;5027807;28;20345;-76
2021/12/09 11:40:19;;;;;;;;;;;2.70;99.90;;;;;;5031738;28;19936;-77
2021/12/09 11:42:49;;;;;;;;;;;2.70;99.90;;;;;;5035591;28;20047;-76
2021/12/09 11:45:19;;;;;;;;;;;2.70;99.90;;;;;;5031546;28;19978;-76
2021/12/09 11:47:47;;;;;;;;;;;2.70;99.90;;;;;;5049871;28;19931;-77
2021/12/09 11:50:16;;;;;;;;;;;2.80;99.90;;;;;;5030652;28;19974;-76
2021/12/09 11:52:46;;;;;;;;;;;2.80;99.90;;;;;;5046240;28;19986;-76
2021/12/09 11:55:15;;;;;;;;;;;2.80;99.90;;;;;;5050220;28;19986;-76
2021/12/09 11:57:45;;;;;;;;;;;2.80;99.90;;;;;;5044929;28;20027;-76
2021/12/09 12:11:47;;;;;;;;;;;2.90;99.90;;;;;;5008818;28;19931;-77
2021/12/09 12:14:33;;;;;;;;;;;2.90;99.90;;;;;;5046661;28;19925;-76
2021/12/09 12:19:59;;;;;;;;;;;2.90;99.90;;;;;;5041513;28;19959;-76
2021/12/09 12:25:49;;;;;;;;;;;2.90;99.90;;;;;;5044360;28;19928;-76
2021/12/09 12:28:24;;;;;;;;;;;2.90;99.90;;;;;;5024165;28;19929;-77
2021/12/09 12:31:23;;;;;;;;;;;2.90;99.90;;;;;;5045963;28;20539;-76
2021/12/09 12:33:58;;;;;;;;;;;3.00;99.90;;;;;;5047278;28;20028;-76
2021/12/09 12:42:45;;;;;;;;;;;3.00;99.90;;;;;;5023115;28;19921;-76
2021/12/09 12:45:23;;;;;;;;;;;3.00;99.90;;;;;;5030909;28;19924;-76
2021/12/09 12:47:56;;;;;;;;;;;3.00;99.90;;;;;;5027986;28;19924;-76
2021/12/09 12:50:23;;;;;;;;;;;3.00;99.90;;;;;;5021500;28;19925;-76
2021/12/09 12:52:53;;;;;;;;;;;3.00;99.90;;;;;;5029758;28;19928;-77
2021/12/09 12:55:25;;;;;;;;;;;3.00;99.90;;;;;;5045322;28;20015;-76
2021/12/09 12:57:54;;;;;;;;;;;3.00;99.90;;;;;;5044985;28;20013;-76
2021/12/09 13:00:25;;;;;;;;;;;3.00;99.90;;;;;;5031244;28;19925;-76
2021/12/09 13:03:16;;;;;;;;;;;3.00;99.90;;;;;;5043274;28;19925;-76
2021/12/09 13:05:55;;;;;;;;;;;3.00;99.90;;;;;;5047612;28;19936;-76
2021/12/09 13:09:11;;;;;;;;;;;3.00;99.90;;;;;;5028007;28;19932;-76
2021/12/09 13:11:42;;;;;;;;;;;3.00;99.90;;;;;;5041549;28;19925;-76
2021/12/09 13:14:17;;;;;;;;;;;3.00;99.90;;;;;;5044076;28;19928;-76
2021/12/09 13:16:59;;;;;;;;;;;3.00;99.90;;;;;;5050299;28;19932;-76
2021/12/09 13:19:34;;;;;;;;;;;3.00;99.90;;;;;;5027800;28;19937;-76
2021/12/09 13:22:02;;;;;;;;;;;3.00;99.90;;;;;;5044454;28;19932;-76
2021/12/09 13:24:33;;;;;;;;;;;3.00;99.90;;;;;;5036355;28;19924;-76
2021/12/09 13:27:10;;;;;;;;;;;3.00;99.90;;;;;;5045525;28;19928;-76
2021/12/09 13:29:45;;;;;;;;;;;3.00;99.90;;;;;;5042596;28;19985;-76
2021/12/09 13:32:47;;;;;;;;;;;3.00;99.90;;;;;;5028005;28;19932;-76
2021/12/09 13:35:19;;;;;;;;;;;3.00;99.90;;;;;;5030368;28;19975;-76
2021/12/09 13:38:08;;;;;;;;;;;3.00;99.90;;;;;;5043409;28;19929;-76
2021/12/09 13:46:21;;;;;;;;;;;3.00;99.90;;;;;;5043136;28;19921;-76
2021/12/09 13:49:00;;;;;;;;;;;3.00;99.90;;;;;;5043718;28;19925;-76
2021/12/09 13:51:51;;;;;;;;;;;3.00;99.90;;;;;;5043729;28;20426;-76
2021/12/09 13:54:20;;;;;;;;;;;3.00;99.90;;;;;;5043381;28;19924;-76
2021/12/09 13:56:47;;;;;;;;;;;3.00;99.90;;;;;;5042129;28;20470;-76
2021/12/09 13:59:15;;;;;;;;;;;3.00;99.90;;;;;;5028924;28;19925;-76
2021/12/09 14:01:42;;;;;;;;;;;3.00;99.90;;;;;;5027472;28;19925;-76
2021/12/09 14:04:10;;;;;;;;;;;3.00;99.90;;;;;;5039518;28;19936;-76
2021/12/09 14:06:38;;;;;;;;;;;3.10;99.90;;;;;;5029163;28;19929;-76
2021/12/09 14:09:05;;;;;;;;;;;3.00;99.90;;;;;;5024871;28;20019;-76
2021/12/09 14:11:34;;;;;;;;;;;3.00;99.90;;;;;;5039312;28;19960;-76
2021/12/09 14:14:05;;;;;;;;;;;3.00;99.90;;;;;;5040827;28;19953;-76
2021/12/09 14:16:45;;;;;;;;;;;3.10;99.90;;;;;;5019704;28;19932;-76
2021/12/09 14:22:04;;;;;;;;;;;3.00;99.90;;;;;;5017711;28;20310;-76
2021/12/09 14:24:32;;;;;;;;;;;3.00;99.90;;;;;;5031319;28;19925;-76
2021/12/09 14:27:00;;;;;;;;;;;3.00;99.90;;;;;;5022798;28;19936;-76
2021/12/09 14:29:28;;;;;;;;;;;3.00;99.90;;;;;;5041034;28;20386;-76
2021/12/09 14:31:57;;;;;;;;;;;3.00;99.90;;;;;;5038539;28;19932;-76
2021/12/09 14:34:27;;;;;;;;;;;3.00;99.90;;;;;;5047376;28;20147;-76
2021/12/09 14:36:58;;;;;;;;;;;3.00;99.90;;;;;;5014872;28;19925;-77
2021/12/09 14:39:25;;;;;;;;;;;3.00;99.90;;;;;;5043571;28;19924;-76
2021/12/09 14:42:05;;;;;;;;;;;3.10;99.90;;;;;;5045056;28;19932;-76
2021/12/09 14:44:32;;;;;;;;;;;3.00;99.90;;;;;;5020078;28;21165;-76
2021/12/09 14:47:05;;;;;;;;;;;3.00;99.90;;;;;;5024467;28;19931;-76
2021/12/09 14:49:42;;;;;;;;;;;3.00;99.90;;;;;;5029510;28;20382;-75
2021/12/09 14:52:09;;;;;;;;;;;3.00;99.90;;;;;;5022572;28;19957;-76
2021/12/09 14:54:36;;;;;;;;;;;3.00;99.90;;;;;;5042503;28;20571;-76
2021/12/09 14:57:05;;;;;;;;;;;3.00;99.90;;;;;;5032518;28;19925;-76
2021/12/09 14:59:34;;;;;;;;;;;3.00;99.90;;;;;;5031180;28;20486;-76
2021/12/09 15:02:11;;;;;;;;;;;3.00;99.90;;;;;;5025959;28;20019;-76
2021/12/09 15:04:44;;;;;;;;;;;3.00;99.90;;;;;;5033538;28;20379;-76
2021/12/09 15:07:15;;;;;;;;;;;3.00;99.90;;;;;;5025455;28;19928;-76
2021/12/09 15:09:42;;;;;;;;;;;3.00;99.90;;;;;;5046381;28;19948;-76
2021/12/09 15:12:11;;;;;;;;;;;3.00;99.90;;;;;;5031512;28;20668;-76
2021/12/09 15:14:41;;;;;;;;;;;3.00;99.90;;;;;;5036606;28;19950;-76
2021/12/09 15:17:14;;;;;;;;;;;3.00;99.90;;;;;;5046133;28;20696;-76
2021/12/09 15:19:44;;;;;;;;;;;3.00;99.90;;;;;;5041627;28;20402;-76